Archival Weather

Chicago O'Hare International

Chicago, Illinois (KORD)

Report from: Saturday, November 5, 2022 12:02 PM CDT
Current time: Saturday, March 2, 2024 4:36 AM CST

Current weather – Weather history – Daily summaries
Weather forecast

Present weatherLight rain
Temperature17.2°C (63.0°F)
Dew point13.3°C (55.9°F)
Winds 29 kts (14.9 m/s, 33.4 mph) South-Southwest (210°)
Wind gusts 50 kts (25.7 m/s, 57.5 mph)
Peak wind 50 kts (25.7 m/s, 57.5 mph) South (190°) at 16:59
Visibility2640 ft. (804.7 m)
Clouds Ceiling: Overcast 2,000 ft. (610 m)
Altimeter29.39 in.Hg (995 mB)
PrecipitiationTrace
Precip. events Rain began 5:00 PM
Relative humidity78 %
Density altitude1,084 ft. (330 m)
Remarks Automated weather observing station with precipitation discriminator
Flight conditions Low Instrument Meteorological Conditions
Raw dataKORD 051702Z 21029G50KT 1/2SM R10L/4000VP6000FT -RA OVC020 17/13 A2939 RMK AO2 PK WND 19050/1659 RAB00 P0000 T01720133
An error has occurred. This application may no longer respond until reloaded. Reload 🗙